createdAt,value
2018-06-14T00:04:47.030Z,-64
2018-06-14T00:14:47.085Z,-65
2018-06-14T00:24:47.019Z,-64
2018-06-14T00:34:47.041Z,-66
2018-06-14T00:44:47.060Z,-65
2018-06-14T00:54:47.010Z,-68
2018-06-14T01:04:46.980Z,-64
2018-06-14T01:14:46.903Z,-67
2018-06-14T01:24:47.059Z,-66
2018-06-14T01:34:46.934Z,-65
2018-06-14T01:44:46.964Z,-65
2018-06-14T01:54:46.955Z,-64
2018-06-14T02:04:47.013Z,-67
2018-06-14T02:14:46.999Z,-63
2018-06-14T02:24:47.074Z,-64
2018-06-14T02:34:47.007Z,-63
2018-06-14T02:44:47.067Z,-63
2018-06-14T02:54:47.089Z,-64
2018-06-14T03:04:47.055Z,-64
2018-06-14T03:14:47.043Z,-66
2018-06-14T03:24:47.131Z,-64
2018-06-14T03:34:47.108Z,-62
2018-06-14T03:44:47.033Z,-64
2018-06-14T03:54:47.124Z,-64
2018-06-14T04:04:47.115Z,-65
2018-06-14T04:14:47.140Z,-64
2018-06-14T04:24:47.226Z,-64
2018-06-14T04:34:47.039Z,-65
2018-06-14T04:44:47.314Z,-65
2018-06-14T04:54:47.096Z,-65
2018-06-14T05:04:47.010Z,-63
2018-06-14T05:14:47.113Z,-64
2018-06-14T05:24:47.008Z,-64
2018-06-14T05:34:47.106Z,-64
2018-06-14T05:44:47.140Z,-64
2018-06-14T05:54:47.127Z,-65
2018-06-14T06:04:47.812Z,-66
2018-06-14T06:14:47.088Z,-66
2018-06-14T06:24:47.097Z,-66
2018-06-14T06:34:47.208Z,-69
2018-06-14T06:44:47.337Z,-58
2018-06-14T06:54:47.303Z,-59
2018-06-14T07:04:47.131Z,-59
2018-06-14T07:14:47.218Z,-69
2018-06-14T07:24:47.308Z,-69
2018-06-14T07:34:47.215Z,-71
2018-06-14T07:44:47.267Z,-70
2018-06-14T07:54:59.938Z,-66
2018-06-14T08:04:47.130Z,-68
2018-06-14T08:14:47.156Z,-70
2018-06-14T08:24:47.400Z,-67
2018-06-14T08:34:47.298Z,-71
2018-06-14T08:44:47.521Z,-69
2018-06-14T08:54:47.206Z,-71
2018-06-14T09:04:47.219Z,-70
2018-06-14T09:14:47.238Z,-71
2018-06-14T09:24:47.232Z,-69
2018-06-14T09:34:47.234Z,-69
2018-06-14T09:44:47.327Z,-71
2018-06-14T09:54:47.191Z,-71
2018-06-14T10:04:47.285Z,-68
2018-06-14T10:14:47.213Z,-71
2018-06-14T10:24:47.544Z,-68
2018-06-14T10:34:47.337Z,-69
2018-06-14T10:44:47.147Z,-70
2018-06-14T10:54:47.194Z,-70
2018-06-14T11:04:47.207Z,-69
2018-06-14T11:14:47.257Z,-71
2018-06-14T11:24:48.696Z,-69
2018-06-14T11:34:47.810Z,-68
2018-06-14T11:44:47.344Z,-70
2018-06-14T11:54:47.275Z,-68
2018-06-14T12:04:47.209Z,-69
2018-06-14T12:14:47.423Z,-71
2018-06-14T12:24:47.174Z,-70
2018-06-14T12:34:47.246Z,-72
2018-06-14T12:44:47.259Z,-69
2018-06-14T12:54:47.354Z,-70
2018-06-14T13:04:47.478Z,-68
2018-06-14T13:14:47.392Z,-71
2018-06-14T13:24:47.338Z,-67
2018-06-14T13:34:48.366Z,-67
2018-06-14T13:44:47.293Z,-71
2018-06-14T13:54:47.270Z,-67
2018-06-14T14:04:47.242Z,-67
2018-06-14T14:14:47.313Z,-66
2018-06-14T14:24:47.269Z,-67
2018-06-14T14:34:47.287Z,-66
2018-06-14T14:44:47.274Z,-67
2018-06-14T14:54:47.242Z,-67
2018-06-14T15:04:47.213Z,-63
2018-06-14T15:14:47.200Z,-64
2018-06-14T15:24:47.223Z,-61
2018-06-14T15:34:47.230Z,-66
2018-06-14T15:44:47.133Z,-63
2018-06-14T15:54:47.223Z,-63
2018-06-14T16:04:47.249Z,-63
2018-06-14T16:14:47.383Z,-62
2018-06-14T16:24:48.339Z,-63
2018-06-14T17:04:47.276Z,-60
2018-06-14T17:24:47.241Z,-61
2018-06-14T17:44:47.251Z,-59
2018-06-14T17:54:47.334Z,-61
2018-06-14T18:04:47.350Z,-61
2018-06-14T18:14:47.949Z,-60
2018-06-14T18:24:47.306Z,-62
2018-06-14T18:34:47.230Z,-61
2018-06-14T18:44:47.324Z,-60
2018-06-14T18:54:47.321Z,-60
2018-06-14T19:04:47.311Z,-60
2018-06-14T19:14:48.030Z,-61
2018-06-14T19:24:47.272Z,-60
2018-06-14T19:34:47.425Z,-59
2018-06-14T19:44:47.388Z,-60
2018-06-14T19:54:47.568Z,-57
2018-06-14T20:04:47.298Z,-57
2018-06-14T20:14:48.383Z,-63
2018-06-14T20:24:47.314Z,-67
2018-06-14T20:34:48.259Z,-62
2018-06-14T20:44:47.328Z,-65
2018-06-14T20:54:47.397Z,-65
2018-06-14T21:04:47.412Z,-63
2018-06-14T21:14:47.261Z,-62
2018-06-14T21:24:47.935Z,-65
2018-06-14T21:34:50.690Z,-64
2018-06-14T21:44:47.345Z,-61
2018-06-14T21:54:47.590Z,-59
2018-06-14T22:04:47.807Z,-64
2018-06-14T22:14:47.516Z,-62
2018-06-14T22:24:47.663Z,-64
2018-06-14T22:34:47.606Z,-62
2018-06-14T22:44:47.668Z,-64
2018-06-14T22:54:47.446Z,-64
2018-06-14T23:04:47.394Z,-63
2018-06-14T23:14:47.440Z,-63
2018-06-14T23:24:47.378Z,-64
2018-06-14T23:34:59.339Z,-63
2018-06-14T23:44:47.399Z,-62
2018-06-14T23:54:47.520Z,-63
